Time;durP1;ratioP1;P1;durP2;ratioP2;P2;SDS_P1;SDS_P2;PMS_P1;PMS_P2;Temp;Humidity;BMP_temperature;BMP_pressure;BME280_temperature;BME280_humidity;BME280_pressure;Samples;Min_cycle;Max_cycle;Signal;HPM_P1;HPM_P2
2023/10/01 00:00:17;;;;;;;14.03;6.80;;;;;;;13.54;71.82;96562.66;6183712;23;20173;-81
2023/10/01 00:02:42;;;;;;;11.77;6.50;;;;;;;13.60;71.51;96561.25;6182582;23;20158;-81
2023/10/01 00:05:09;;;;;;;13.17;7.33;;;;;;;13.59;71.47;96555.22;6158097;23;20189;-80
2023/10/01 00:07:37;;;;;;;11.50;6.23;;;;;;;13.57;71.56;96556.34;6159267;23;20154;-81
2023/10/01 00:10:10;;;;;;;12.20;6.63;;;;;;;13.54;71.39;96554.84;6159243;23;20169;-80
2023/10/01 00:12:39;;;;;;;10.53;6.07;;;;;;;13.63;71.17;96554.97;6183277;23;20253;-82
2023/10/01 00:15:06;;;;;;;12.07;6.17;;;;;;;13.63;71.24;96561.00;6182920;23;20252;-80
2023/10/01 00:17:32;;;;;;;11.57;6.80;;;;;;;13.51;71.99;96562.09;6207985;23;20551;-81
2023/10/01 00:20:00;;;;;;;13.10;6.80;;;;;;;13.41;72.46;96571.75;6158067;23;20189;-81
2023/10/01 00:22:26;;;;;;;10.40;6.03;;;;;;;13.50;71.92;96576.13;6183070;23;20147;-81
2023/10/01 00:24:51;;;;;;;11.97;6.47;;;;;;;13.45;72.26;96573.13;6158902;23;20189;-81
2023/10/01 00:27:16;;;;;;;11.43;6.63;;;;;;;13.58;71.91;96573.63;6158768;23;20230;-81
2023/10/01 00:29:41;;;;;;;14.53;7.20;;;;;;;13.61;71.18;96560.31;6182451;23;20511;-80
2023/10/01 00:32:07;;;;;;;13.20;6.30;;;;;;;13.55;71.50;96564.31;6182768;23;20186;-81
2023/10/01 00:34:32;;;;;;;12.23;6.00;;;;;;;13.57;71.32;96562.38;6185072;23;20174;-81
2023/10/01 00:36:57;;;;;;;11.50;6.50;;;;;;;13.54;71.57;96556.63;6183719;23;20173;-81
2023/10/01 00:39:23;;;;;;;11.73;6.67;;;;;;;13.52;71.63;96556.78;6184993;23;20169;-81
2023/10/01 00:41:48;;;;;;;10.60;6.70;;;;;;;13.56;71.42;96563.34;6160891;23;20217;-81
2023/10/01 00:44:13;;;;;;;13.17;6.87;;;;;;;13.57;71.26;96553.72;6185258;23;20158;-81
2023/10/01 00:46:39;;;;;;;13.07;6.67;;;;;;;13.58;71.26;96557.97;6185263;23;20155;-81
2023/10/01 00:49:05;;;;;;;11.73;6.63;;;;;;;13.60;71.19;96556.03;6185259;23;20680;-82
2023/10/01 00:51:31;;;;;;;14.33;6.57;;;;;;;13.44;71.73;96559.25;6173611;23;20225;-81
2023/10/01 00:53:56;;;;;;;12.70;6.80;;;;;;;13.46;71.32;96564.34;6198109;23;20158;-80
2023/10/01 00:56:22;;;;;;;14.50;6.60;;;;;;;13.48;71.65;96554.56;6196896;23;20183;-80
2023/10/01 00:58:48;;;;;;;15.93;6.70;;;;;;;13.35;72.62;96546.25;6190735;23;20186;-82
2023/10/01 01:01:16;;;;;;;11.57;6.37;;;;;;;13.44;72.15;96556.66;6185934;23;20170;-81
2023/10/01 01:03:43;;;;;;;10.47;6.33;;;;;;;13.41;72.31;96556.09;6184481;23;20202;-82
2023/10/01 01:06:17;;;;;;;10.43;6.30;;;;;;;13.41;72.11;96553.47;6185442;23;20658;-80
2023/10/01 01:08:46;;;;;;;12.77;6.50;;;;;;;13.33;72.19;96549.78;6162003;23;20154;-81
2023/10/01 01:11:15;;;;;;;13.87;6.30;;;;;;;13.37;72.30;96552.13;6184873;23;20169;-81
2023/10/01 01:13:41;;;;;;;12.90;6.27;;;;;;;13.36;71.97;96547.88;6208293;23;20177;-81
2023/10/01 01:16:07;;;;;;;16.77;6.83;;;;;;;13.32;72.14;96542.91;6160115;23;20267;-81
2023/10/01 01:18:36;;;;;;;11.93;7.07;;;;;;;13.22;72.81;96542.13;6160535;23;20158;-81
2023/10/01 01:21:10;;;;;;;14.27;7.03;;;;;;;13.15;73.33;96545.38;6160732;23;20240;-81
2023/10/01 01:23:36;;;;;;;14.70;6.90;;;;;;;13.26;72.27;96548.72;6183987;23;20142;-81
2023/10/01 01:26:02;;;;;;;10.27;6.33;;;;;;;13.30;72.29;96544.03;6184812;23;20167;-80
2023/10/01 01:28:30;;;;;;;12.40;6.33;;;;;;;13.22;72.44;96539.50;6160419;23;20473;-81
2023/10/01 01:30:59;;;;;;;17.93;7.07;;;;;;;13.27;72.43;96531.28;6160280;23;20155;-80
2023/10/01 01:33:31;;;;;;;11.60;6.17;;;;;;;13.27;72.35;96534.72;6183624;23;20212;-81
2023/10/01 01:35:58;;;;;;;11.70;6.63;;;;;;;13.26;72.40;96530.47;6207073;23;20527;-81
2023/10/01 01:38:23;;;;;;;15.83;7.40;;;;;;;13.20;73.09;96533.63;6159451;23;20162;-81
2023/10/01 01:40:51;;;;;;;13.13;6.97;;;;;;;13.28;72.48;96527.72;6184429;23;20165;-81
2023/10/01 01:43:21;;;;;;;12.33;6.97;;;;;;;13.14;72.98;96528.91;6183252;23;20190;-81
2023/10/01 01:45:54;;;;;;;14.50;6.80;;;;;;;13.28;72.35;96535.53;6160062;23;20631;-81
2023/10/01 01:48:26;;;;;;;10.53;6.20;;;;;;;13.25;72.73;96530.56;6183974;23;20487;-81
2023/10/01 01:50:54;;;;;;;11.30;6.23;;;;;;;13.17;73.27;96531.28;6159818;23;20151;-81
2023/10/01 01:53:20;;;;;;;15.27;7.20;;;;;;;13.12;73.17;96525.63;6183385;23;20195;-82
2023/10/01 01:55:47;;;;;;;13.40;6.90;;;;;;;13.18;72.91;96524.25;6208787;23;20174;-81
2023/10/01 01:58:15;;;;;;;14.87;7.20;;;;;;;13.16;73.14;96531.38;6185769;23;20154;-81
2023/10/01 02:01:01;;;;;;;10.63;6.23;;;;;;;13.20;73.03;96523.19;6208986;23;20205;-81
2023/10/01 02:03:33;;;;;;;12.03;6.60;;;;;;;13.17;72.74;96517.41;6183160;23;20161;-80
2023/10/01 02:06:00;;;;;;;15.87;6.83;;;;;;;13.11;73.25;96515.34;6208566;23;20175;-81
2023/10/01 02:08:35;;;;;;;12.60;6.37;;;;;;;13.07;73.42;96517.41;6184049;23;20165;-81
2023/10/01 02:11:06;;;;;;;10.90;6.73;;;;;;;12.94;74.37;96517.69;6161318;23;20483;-81
2023/10/01 02:13:40;;;;;;;11.00;5.90;;;;;;;12.97;74.41;96520.00;6159717;23;20214;-81
2023/10/01 02:18:56;;;;;;;11.80;6.80;;;;;;;12.98;74.55;96518.22;6185528;23;20273;-80
2023/10/01 02:21:42;;;;;;;10.80;6.23;;;;;;;12.96;74.52;96528.81;6185646;23;20138;-81
2023/10/01 02:24:13;;;;;;;11.37;6.53;;;;;;;12.87;74.89;96521.00;6183699;23;20139;-81
2023/10/01 02:26:39;;;;;;;14.47;6.97;;;;;;;12.85;75.23;96518.53;6208349;23;20210;-80
2023/10/01 02:29:05;;;;;;;12.23;6.80;;;;;;;12.90;75.05;96510.31;6208806;23;20154;-81
2023/10/01 02:31:34;;;;;;;13.23;7.13;;;;;;;12.88;74.86;96507.81;6158572;23;20214;-80
2023/10/01 02:34:03;;;;;;;12.07;6.70;;;;;;;12.99;74.79;96502.47;6158550;23;20245;-81
2023/10/01 02:36:30;;;;;;;12.07;6.87;;;;;;;13.00;74.28;96503.28;6208194;23;20314;-81
2023/10/01 02:38:56;;;;;;;12.37;6.70;;;;;;;12.95;74.49;96500.25;6184076;23;20162;-81
2023/10/01 02:41:25;;;;;;;12.20;6.67;;;;;;;12.86;74.92;96499.31;6159074;23;20154;-81
2023/10/01 02:43:52;;;;;;;15.37;6.90;;;;;;;12.87;74.94;96492.31;6182876;23;20203;-81
2023/10/01 02:46:26;;;;;;;11.83;6.10;;;;;;;12.79;75.43;96500.81;6158977;23;20697;-81
2023/10/01 02:48:54;;;;;;;12.27;7.30;;;;;;;12.89;74.96;96500.81;6183971;23;20162;-81
2023/10/01 02:51:32;;;;;;;12.23;6.83;;;;;;;12.82;75.26;96491.91;6183692;23;20528;-81
2023/10/01 02:54:03;;;;;;;15.30;7.00;;;;;;;12.96;74.64;96491.47;6161272;23;20178;-81
2023/10/01 02:56:37;;;;;;;13.03;6.83;;;;;;;12.81;75.55;96498.06;6184403;23;20174;-80
2023/10/01 02:59:08;;;;;;;9.83;5.80;;;;;;;12.85;74.97;96489.03;6184465;23;20135;-81
2023/10/01 03:01:36;;;;;;;13.97;6.50;;;;;;;12.96;74.50;96501.91;6160787;23;20222;-81
2023/10/01 03:04:12;;;;;;;13.90;6.70;;;;;;;12.72;75.71;96497.97;6208618;23;20154;-81
2023/10/01 03:06:55;;;;;;;12.80;6.60;;;;;;;12.71;75.82;96491.06;6161519;23;20160;-82
2023/10/01 03:09:32;;;;;;;13.87;6.40;;;;;;;12.76;75.99;96494.09;6184357;23;20599;-81
2023/10/01 03:12:49;;;;;;;10.40;6.60;;;;;;;12.86;75.45;96495.88;6159649;23;20254;-80
2023/10/01 03:14:59;;;;;;;11.47;7.00;;;;;;;12.66;76.55;96498.50;6188348;23;20179;-80
2023/10/01 03:17:27;;;;;;;11.53;5.93;;;;;;;12.82;75.87;96492.75;6183954;23;20153;-81
2023/10/01 03:19:53;;;;;;;10.60;6.50;;;;;;;12.80;76.20;96483.41;6159870;23;20246;-81
2023/10/01 03:22:23;;;;;;;12.40;6.60;;;;;;;12.86;75.47;96490.66;6184106;23;20154;-81
2023/10/01 03:24:50;;;;;;;11.03;6.87;;;;;;;12.80;76.59;96489.44;6183103;23;20249;-81
2023/10/01 03:27:19;;;;;;;13.07;6.50;;;;;;;12.87;76.91;96485.31;6158463;23;20557;-81
2023/10/01 03:29:48;;;;;;;15.80;7.10;;;;;;;13.07;75.64;96486.09;6159067;23;20159;-81
2023/10/01 03:32:28;;;;;;;10.43;6.37;;;;;;;13.00;76.36;96491.06;6158997;23;20178;-81
2023/10/01 03:34:55;;;;;;;12.20;6.13;;;;;;;13.02;76.07;96483.94;6160714;23;20186;-81
2023/10/01 03:37:27;;;;;;;11.23;7.27;;;;;;;13.08;75.94;96484.34;6183489;23;20174;-81
2023/10/01 03:39:57;;;;;;;12.93;6.23;;;;;;;13.09;75.92;96484.19;6184230;23;20151;-81
2023/10/01 03:42:23;;;;;;;12.83;6.47;;;;;;;13.16;75.24;96487.88;6184251;23;20163;-81
2023/10/01 03:47:34;;;;;;;12.97;6.90;;;;;;;13.23;74.52;96485.56;6183934;23;20226;-81
2023/10/01 03:50:00;;;;;;;16.47;7.20;;;;;;;13.12;75.18;96488.31;6159134;23;20158;-81
2023/10/01 03:52:39;;;;;;;11.57;6.50;;;;;;;13.17;74.94;96481.72;6182310;23;20242;-82
2023/10/01 03:55:25;;;;;;;11.37;6.40;;;;;;;13.12;74.99;96493.53;6162585;23;20209;-81
2023/10/01 04:00:52;;;;;;;11.60;6.50;;;;;;;12.81;76.83;96485.03;6103538;23;20195;-81
2023/10/01 04:03:21;;;;;;;12.50;7.07;;;;;;;12.94;76.28;96494.22;6074907;23;20151;-81
2023/10/01 04:05:46;;;;;;;12.37;6.50;;;;;;;12.91;76.08;96486.69;6099016;23;20186;-81
2023/10/01 04:08:16;;;;;;;12.80;6.40;;;;;;;12.94;76.30;96485.59;6097907;23;20171;-81
2023/10/01 04:10:43;;;;;;;14.60;6.90;;;;;;;12.88;76.89;96483.53;6099252;23;20195;-80
2023/10/01 04:13:20;;;;;;;11.43;7.17;;;;;;;12.92;77.04;96474.47;6099806;23;20191;-80
2023/10/01 04:15:48;;;;;;;14.37;7.00;;;;;;;13.14;76.27;96484.59;6103062;23;20187;-81
2023/10/01 04:23:31;;;;;;;14.83;7.07;;;;;;;13.28;74.96;96475.53;6100513;23;20136;-80
2023/10/01 04:26:06;;;;;;;12.43;7.20;;;;;;;13.30;74.74;96471.00;6101573;23;20662;-81
2023/10/01 04:28:35;;;;;;;11.63;7.33;;;;;;;13.31;74.90;96467.41;6101172;23;20159;-81
2023/10/01 04:31:03;;;;;;;17.30;7.07;;;;;;;13.31;75.27;96470.03;6100735;23;20175;-82
2023/10/01 04:33:31;;;;;;;12.17;6.83;;;;;;;13.33;75.07;96460.25;6099929;23;20164;-81
2023/10/01 04:35:58;;;;;;;11.33;6.70;;;;;;;13.45;74.10;96455.72;6098999;23;20191;-81
2023/10/01 04:38:32;;;;;;;13.60;6.70;;;;;;;13.30;74.73;96463.16;6148354;23;20220;-81
2023/10/01 04:41:03;;;;;;;12.50;6.93;;;;;;;13.26;74.60;96467.03;6185198;23;20225;-81
2023/10/01 04:43:34;;;;;;;12.97;6.87;;;;;;;13.16;75.18;96456.56;6208701;23;20143;-81
2023/10/01 04:46:00;;;;;;;11.87;6.50;;;;;;;13.26;74.81;96461.81;6161172;23;20178;-81
2023/10/01 04:48:26;;;;;;;14.13;7.73;;;;;;;13.13;75.37;96458.66;6184814;23;20158;-82
2023/10/01 04:50:55;;;;;;;11.63;6.57;;;;;;;13.14;75.44;96462.91;6159823;23;20212;-82
2023/10/01 04:53:22;;;;;;;11.70;6.57;;;;;;;13.12;75.32;96465.66;6208359;23;20174;-81
2023/10/01 04:56:00;;;;;;;10.37;6.27;;;;;;;13.16;74.70;96482.66;6185201;23;20178;-80
2023/10/01 04:58:26;;;;;;;12.53;6.83;;;;;;;13.06;75.34;96484.47;6184957;23;20145;-81
2023/10/01 05:00:52;;;;;;;14.03;6.90;;;;;;;12.96;76.19;96476.66;6186972;23;20186;-81
2023/10/01 05:03:17;;;;;;;10.63;5.87;;;;;;;13.03;75.66;96482.97;6159198;23;20530;-82
2023/10/01 05:05:43;;;;;;;13.27;6.57;;;;;;;12.94;76.05;96477.78;6160068;23;20213;-82
2023/10/01 05:08:12;;;;;;;13.13;6.43;;;;;;;12.92;76.13;96490.13;6159805;23;20205;-82
2023/10/01 05:10:53;;;;;;;13.60;6.70;;;;;;;12.96;75.95;96483.66;6185158;23;20205;-82
2023/10/01 05:13:25;;;;;;;11.50;6.80;;;;;;;12.95;75.92;96487.22;6184219;23;20249;-81
2023/10/01 05:15:55;;;;;;;12.87;7.30;;;;;;;12.96;76.01;96483.66;6184607;23;20174;-82
2023/10/01 05:18:27;;;;;;;12.43;6.30;;;;;;;12.91;76.42;96483.28;6161019;23;20246;-82
2023/10/01 05:20:59;;;;;;;11.00;6.17;;;;;;;13.01;76.11;96486.69;6183874;23;20139;-82
2023/10/01 05:23:25;;;;;;;12.37;6.70;;;;;;;13.09;75.93;96488.59;6183810;23;20583;-82
2023/10/01 05:25:50;;;;;;;11.97;6.60;;;;;;;13.01;76.42;96491.91;6184006;23;20190;-82
2023/10/01 05:28:31;;;;;;;14.33;7.17;;;;;;;13.14;76.19;96492.41;6185202;23;20500;-81
2023/10/01 05:31:00;;;;;;;12.20;6.67;;;;;;;13.26;75.54;96503.56;6185008;23;20523;-81
2023/10/01 05:33:27;;;;;;;14.00;6.60;;;;;;;13.31;75.48;96496.13;6208556;23;20182;-82
2023/10/01 05:35:57;;;;;;;10.77;6.33;;;;;;;13.35;75.48;96504.50;6209217;23;20257;-81
2023/10/01 05:38:26;;;;;;;11.53;5.83;;;;;;;13.43;75.08;96504.59;6186149;23;20143;-81
2023/10/01 05:40:54;;;;;;;10.60;6.27;;;;;;;13.58;74.78;96504.00;6184748;23;20213;-81
2023/10/01 05:43:27;;;;;;;11.67;6.07;;;;;;;13.78;73.49;96506.53;6183942;23;20151;-81
2023/10/01 05:45:52;;;;;;;12.57;6.40;;;;;;;13.84;73.26;96511.19;6209499;23;20178;-81
2023/10/01 05:48:23;;;;;;;15.90;6.77;;;;;;;13.72;73.97;96504.50;6160172;23;20186;-81
2023/10/01 05:50:49;;;;;;;12.60;6.50;;;;;;;13.83;73.23;96512.16;6159888;23;20505;-80
2023/10/01 05:53:17;;;;;;;12.00;6.47;;;;;;;13.92;73.13;96519.13;6183541;23;20554;-81
2023/10/01 05:55:43;;;;;;;11.77;6.37;;;;;;;13.93;73.20;96523.38;6185973;23;20175;-80
2023/10/01 05:58:12;;;;;;;12.17;7.23;;;;;;;13.94;73.34;96526.78;6159702;23;20182;-81
2023/10/01 06:00:50;;;;;;;10.70;6.03;;;;;;;14.02;72.93;96524.28;6184808;23;20178;-81
2023/10/01 06:03:16;;;;;;;12.23;6.97;;;;;;;14.02;72.80;96526.91;6187420;23;20571;-81
2023/10/01 06:05:46;;;;;;;12.50;6.80;;;;;;;13.95;73.32;96526.66;6181201;23;20214;-84
2023/10/01 06:08:15;;;;;;;12.17;6.67;;;;;;;13.97;73.30;96527.34;6183127;23;20181;-81
2023/10/01 06:11:03;;;;;;;12.17;7.03;;;;;;;14.14;72.92;96528.38;6208620;23;20155;-81
2023/10/01 06:13:29;;;;;;;11.70;6.20;;;;;;;14.06;72.95;96529.09;6184049;23;20173;-80
2023/10/01 06:16:11;;;;;;;12.83;7.70;;;;;;;14.18;72.30;96542.78;6162559;23;20257;-81
2023/10/01 06:18:41;;;;;;;13.37;6.60;;;;;;;14.15;72.55;96537.84;6163184;23;20139;-81
2023/10/01 06:21:07;;;;;;;10.47;6.40;;;;;;;14.12;72.92;96530.28;6160333;23;20165;-81
2023/10/01 06:23:33;;;;;;;12.67;6.63;;;;;;;14.11;73.03;96524.25;6160161;23;20163;-81
2023/10/01 06:25:58;;;;;;;11.70;6.97;;;;;;;14.14;73.11;96536.22;6160450;23;20186;-81
2023/10/01 06:28:27;;;;;;;11.63;6.83;;;;;;;14.28;72.43;96530.47;6160157;23;20785;-81
2023/10/01 06:30:52;;;;;;;12.10;6.50;;;;;;;14.28;72.40;96533.09;6159654;23;20177;-82
2023/10/01 06:33:29;;;;;;;13.63;6.60;;;;;;;14.39;72.13;96535.47;6158866;23;20213;-81
2023/10/01 06:38:39;;;;;;;13.67;6.70;;;;;;;14.65;71.57;96530.41;6206408;23;20150;-81
2023/10/01 06:41:06;;;;;;;14.20;7.47;;;;;;;14.71;71.23;96529.81;6186851;23;20146;-81
2023/10/01 06:43:32;;;;;;;12.73;6.60;;;;;;;14.74;70.75;96534.72;6158840;23;20159;-83
2023/10/01 06:45:59;;;;;;;11.40;6.43;;;;;;;14.80;70.49;96538.56;6183492;23;20197;-81
2023/10/01 06:48:26;;;;;;;13.33;6.83;;;;;;;14.84;70.57;96539.91;6158855;23;20164;-81
2023/10/01 06:50:53;;;;;;;13.30;7.60;;;;;;;14.92;70.57;96539.94;6184432;23;20201;-81
2023/10/01 06:53:19;;;;;;;11.27;6.23;;;;;;;14.98;70.37;96541.16;6183165;23;20175;-82
2023/10/01 06:55:47;;;;;;;14.10;7.37;;;;;;;15.14;69.84;96548.31;6159644;23;20290;-82
2023/10/01 06:58:13;;;;;;;12.80;7.15;;;;;;;15.21;69.68;96544.97;6159385;23;20193;-82
2023/10/01 07:00:41;;;;;;;12.50;7.27;;;;;;;15.33;69.54;96545.53;6183920;23;20159;-81
2023/10/01 07:03:21;;;;;;;8.93;5.93;;;;;;;15.37;68.95;96548.66;6157493;23;20162;-81
2023/10/01 07:05:47;;;;;;;12.45;6.43;;;;;;;15.46;68.63;96548.56;6184248;23;20171;-82
2023/10/01 07:08:16;;;;;;;13.33;6.73;;;;;;;15.54;68.29;96540.75;6184068;23;20170;-82
2023/10/01 07:10:42;;;;;;;12.43;6.17;;;;;;;15.65;67.90;96546.75;6159255;23;20166;-82
2023/10/01 07:13:08;;;;;;;16.38;7.22;;;;;;;15.73;67.86;96550.25;6161327;23;20185;-83
2023/10/01 07:15:37;;;;;;;14.07;7.93;;;;;;;15.86;67.37;96553.25;6163784;23;20182;-83
2023/10/01 07:18:15;;;;;;;11.15;6.20;;;;;;;15.97;66.25;96559.19;6162915;23;20162;-81
2023/10/01 07:20:44;;;;;;;11.57;6.70;;;;;;;16.05;65.30;96569.72;6187651;23;20711;-82
2023/10/01 07:23:11;;;;;;;14.43;7.30;;;;;;;16.14;63.86;96556.50;6164496;23;20213;-80
2023/10/01 07:25:42;;;;;;;14.63;6.88;;;;;;;16.23;63.02;96564.38;6170112;23;20183;-82
2023/10/01 07:28:12;;;;;;;11.07;5.78;;;;;;;16.33;63.07;96572.94;6166145;23;20147;-82
2023/10/01 07:30:45;;;;;;;11.70;6.40;;;;;;;16.35;63.00;96571.00;6189950;23;20150;-82
2023/10/01 07:33:17;;;;;;;11.68;6.75;;;;;;;16.37;62.94;96579.53;6188727;23;20186;-82
2023/10/01 07:35:44;;;;;;;10.70;6.38;;;;;;;16.43;62.68;96584.13;6188596;23;20178;-82
2023/10/01 07:38:15;;;;;;;9.75;6.38;;;;;;;16.39;62.08;96581.00;6192668;23;20194;-82
2023/10/01 07:40:57;;;;;;;13.23;6.78;;;;;;;16.35;62.19;96581.50;6214620;23;20143;-82
2023/10/01 07:43:26;;;;;;;12.23;6.07;;;;;;;16.39;62.66;96580.19;6188056;23;20159;-82
2023/10/01 07:45:55;;;;;;;10.32;6.13;;;;;;;16.52;62.46;96580.56;6213183;23;20253;-81
2023/10/01 07:48:28;;;;;;;9.68;6.13;;;;;;;16.61;62.40;96591.91;6207224;23;20499;-82
2023/10/01 07:50:55;;;;;;;11.05;6.13;;;;;;;16.66;62.57;96579.13;6158467;23;20162;-81
2023/10/01 07:53:22;;;;;;;11.52;5.97;;;;;;;16.76;62.14;96592.13;6159838;23;20182;-82
2023/10/01 07:55:47;;;;;;;9.48;5.80;;;;;;;16.82;61.78;96589.69;6185069;23;20202;-82
2023/10/01 07:58:23;;;;;;;13.70;6.85;;;;;;;16.84;62.01;96584.28;6185104;23;20567;-81
2023/10/01 08:00:58;;;;;;;8.82;5.68;;;;;;;16.88;60.77;96589.03;6207423;23;20242;-81
2023/10/01 08:05:49;;;;;;;11.07;5.88;;;;;;;17.10;60.10;96582.34;6187075;23;20181;-81
2023/10/01 08:08:27;;;;;;;13.15;6.32;;;;;;;17.23;59.83;96587.13;6158018;23;20264;-82
2023/10/01 08:10:54;;;;;;;11.57;6.65;;;;;;;17.21;59.62;96594.31;6185474;23;20174;-82
2023/10/01 08:13:25;;;;;;;11.07;6.13;;;;;;;17.15;58.86;96597.63;6183349;23;20198;-81
2023/10/01 08:15:57;;;;;;;10.35;5.55;;;;;;;17.26;58.95;96598.09;6161612;23;20656;-81
2023/10/01 08:18:35;;;;;;;10.45;5.60;;;;;;;17.32;57.94;96606.31;6184835;23;20143;-81
2023/10/01 08:21:02;;;;;;;9.15;5.22;;;;;;;17.45;58.28;96604.00;6162434;23;20235;-80
2023/10/01 08:23:27;;;;;;;10.57;5.82;;;;;;;17.46;58.32;96608.28;6189759;23;20173;-81
2023/10/01 08:25:55;;;;;;;9.88;6.05;;;;;;;17.59;57.61;96592.03;6191377;23;20821;-80
2023/10/01 08:30:49;;;;;;;11.50;5.88;;;;;;;17.64;57.57;96601.03;6189164;23;20213;-80
2023/10/01 08:33:26;;;;;;;10.65;6.22;;;;;;;17.84;57.30;96596.28;6164275;23;20186;-80
2023/10/01 08:36:01;;;;;;;11.18;6.00;;;;;;;17.94;56.76;96593.50;6167048;23;20201;-80
2023/10/01 08:38:34;;;;;;;9.75;5.90;;;;;;;17.98;57.49;96592.97;6166133;23;20181;-80
2023/10/01 08:41:02;;;;;;;9.70;5.93;;;;;;;18.01;57.04;96590.00;6165591;23;20143;-80
2023/10/01 08:43:36;;;;;;;8.35;5.60;;;;;;;18.11;56.92;96592.47;6188171;23;20162;-81
2023/10/01 08:46:15;;;;;;;9.40;5.97;;;;;;;18.17;57.02;96593.56;6189076;23;20178;-80
2023/10/01 08:48:43;;;;;;;11.15;5.68;;;;;;;18.34;55.73;96597.78;6189089;23;20147;-80
2023/10/01 08:51:11;;;;;;;11.52;5.82;;;;;;;18.36;55.60;96601.06;6188079;23;20179;-81
2023/10/01 08:53:41;;;;;;;11.13;6.25;;;;;;;18.16;56.78;96598.00;6162781;23;20241;-81
2023/10/01 08:56:07;;;;;;;13.30;6.63;;;;;;;18.49;55.38;96600.53;6190511;23;20167;-81
2023/10/01 08:58:48;;;;;;;11.35;6.50;;;;;;;18.37;55.64;96598.25;6190635;23;20173;-80
2023/10/01 09:01:15;;;;;;;13.57;6.55;;;;;;;18.59;55.07;96598.50;6189571;23;20149;-81
2023/10/01 09:03:47;;;;;;;12.60;6.68;;;;;;;18.71;54.93;96598.97;6165310;23;20154;-81
2023/10/01 09:06:27;;;;;;;11.98;6.97;;;;;;;18.82;54.21;96602.03;6214864;23;20174;-79
2023/10/01 09:08:59;;;;;;;11.68;7.15;;;;;;;18.90;53.85;96598.53;6168884;23;20150;-80
2023/10/01 09:11:49;;;;;;;10.23;6.07;;;;;;;19.02;54.01;96601.59;6215432;23;20238;-80
2023/10/01 09:14:18;;;;;;;10.38;6.35;;;;;;;18.89;54.53;96596.88;6167286;23;20163;-81
2023/10/01 09:16:45;;;;;;;9.98;5.72;;;;;;;18.95;53.55;96599.66;6190645;23;20159;-80
2023/10/01 09:19:30;;;;;;;9.88;6.18;;;;;;;18.91;53.99;96602.81;6190629;23;20158;-81
2023/10/01 09:22:09;;;;;;;8.85;5.90;;;;;;;19.16;53.17;96598.19;6190502;23;20127;-80
2023/10/01 09:24:38;;;;;;;10.77;5.38;;;;;;;19.25;53.86;96607.66;6189550;23;20519;-80
2023/10/01 09:27:19;;;;;;;11.02;6.20;;;;;;;19.49;53.17;96604.84;6165916;23;20289;-80
2023/10/01 09:29:48;;;;;;;11.25;6.00;;;;;;;19.63;53.99;96599.84;6213298;23;20158;-81
2023/10/01 09:32:14;;;;;;;10.55;5.85;;;;;;;19.67;53.05;96609.03;6191167;23;20278;-80
2023/10/01 09:34:47;;;;;;;11.10;6.70;;;;;;;19.74;52.72;96602.03;6214728;23;20174;-80
2023/10/01 09:37:17;;;;;;;11.18;6.50;;;;;;;19.80;52.03;96596.88;6214330;23;20186;-81
2023/10/01 09:39:43;;;;;;;12.27;7.00;;;;;;;19.61;51.27;96596.53;6191888;23;20143;-79
2023/10/01 09:42:24;;;;;;;13.00;7.15;;;;;;;19.53;51.82;96600.88;6190451;23;20631;-80
2023/10/01 09:44:53;;;;;;;11.63;6.93;;;;;;;19.66;50.94;96596.84;6168357;23;20197;-81
2023/10/01 09:47:24;;;;;;;13.10;6.45;;;;;;;19.92;51.26;96591.16;6216157;23;20150;-81
2023/10/01 09:49:57;;;;;;;13.40;7.03;;;;;;;20.05;51.62;96593.97;6215431;23;20150;-80
2023/10/01 09:52:48;;;;;;;14.82;7.57;;;;;;;20.08;50.11;96589.19;6190016;23;20194;-81
2023/10/01 09:55:26;;;;;;;13.13;7.50;;;;;;;20.06;51.37;96585.91;6169572;23;20245;-80
2023/10/01 09:57:55;;;;;;;12.60;6.90;;;;;;;20.16;51.21;96585.63;6166995;23;20173;-80
2023/10/01 10:00:21;;;;;;;12.27;6.97;;;;;;;19.82;50.61;96583.53;6190236;23;20185;-81
2023/10/01 10:02:51;;;;;;;10.23;6.18;;;;;;;20.01;50.24;96577.72;6164446;23;20155;-81
2023/10/01 10:05:26;;;;;;;11.98;6.90;;;;;;;20.09;50.31;96585.53;6189450;23;20182;-81
2023/10/01 10:07:55;;;;;;;12.80;7.20;;;;;;;20.04;50.20;96587.88;6191793;23;20154;-81
2023/10/01 10:10:24;;;;;;;13.82;7.28;;;;;;;20.05;50.28;96576.38;6214772;23;20175;-81
2023/10/01 10:13:33;;;;;;;13.63;7.38;;;;;;;20.27;50.14;96576.44;6164531;23;20182;-80
2023/10/01 10:15:59;;;;;;;12.07;7.15;;;;;;;19.88;50.91;96572.25;6192034;23;20198;-80
2023/10/01 10:18:25;;;;;;;13.00;6.97;;;;;;;20.03;51.34;96567.78;6190076;23;20162;-80
2023/10/01 10:21:03;;;;;;;11.25;6.80;;;;;;;20.27;50.25;96565.88;6165040;23;20550;-80
2023/10/01 10:23:31;;;;;;;11.35;6.90;;;;;;;20.42;49.05;96565.88;6214504;23;20159;-80
2023/10/01 10:26:13;;;;;;;11.07;6.22;;;;;;;20.69;48.27;96562.59;6189669;23;20171;-80
2023/10/01 10:28:53;;;;;;;13.93;7.35;;;;;;;20.69;46.95;96559.94;6189438;23;20154;-80
2023/10/01 10:31:32;;;;;;;12.02;6.65;;;;;;;20.77;46.82;96553.75;6214042;23;20159;-81
2023/10/01 10:34:21;;;;;;;10.80;6.65;;;;;;;20.87;47.09;96554.25;6165263;23;20200;-81
2023/10/01 10:36:55;;;;;;;12.70;6.72;;;;;;;21.06;46.88;96550.97;6167839;23;20619;-81
2023/10/01 10:39:47;;;;;;;11.52;6.70;;;;;;;21.10;48.39;96546.94;6166081;23;20185;-81
2023/10/01 10:42:28;;;;;;;10.43;6.95;;;;;;;21.23;46.30;96545.44;6190233;23;20533;-80
2023/10/01 10:45:22;;;;;;;12.45;7.30;;;;;;;21.33;47.75;96549.44;6191035;23;20258;-78
2023/10/01 10:48:01;;;;;;;11.35;6.30;;;;;;;21.42;47.79;96547.47;6190932;23;20145;-81
2023/10/01 10:50:53;;;;;;;11.38;6.82;;;;;;;21.47;46.96;96547.72;6191896;23;20162;-78
2023/10/01 10:53:23;;;;;;;10.95;6.60;;;;;;;21.27;49.30;96552.00;6191016;23;20410;-80
2023/10/01 10:56:00;;;;;;;11.85;7.18;;;;;;;21.36;46.70;96550.88;6165778;23;20274;-80
2023/10/01 10:58:28;;;;;;;12.20;6.97;;;;;;;21.52;47.30;96555.88;6189953;23;20606;-80
2023/10/01 11:00:55;;;;;;;26.27;20.30;;;;;;;21.55;45.78;96550.19;6191165;23;20177;-81
2023/10/01 11:03:43;;;;;;;12.88;7.13;;;;;;;21.18;47.87;96554.75;6165466;23;20207;-79
2023/10/01 11:06:44;;;;;;;12.00;7.20;;;;;;;21.64;47.18;96559.63;6190017;23;20209;-81
2023/10/01 11:09:22;;;;;;;12.30;7.32;;;;;;;21.62;47.12;96548.44;6162041;23;20178;-81
2023/10/01 11:12:39;;;;;;;14.95;8.18;;;;;;;21.69;47.25;96545.84;6167732;23;20194;-81
2023/10/01 11:17:43;;;;;;;18.00;11.98;;;;;;;21.70;46.34;96548.28;6190768;23;20150;-81
2023/10/01 11:20:22;;;;;;;14.73;7.88;;;;;;;21.73;46.09;96547.94;6189506;23;20154;-81
2023/10/01 11:22:49;;;;;;;17.67;9.93;;;;;;;21.44;46.27;96548.09;6190195;23;20482;-81
2023/10/01 11:25:15;;;;;;;13.77;7.80;;;;;;;21.59;45.89;96546.19;6190027;23;20200;-80
2023/10/01 11:27:53;;;;;;;14.40;8.25;;;;;;;21.65;46.61;96545.44;6165567;23;20630;-81
2023/10/01 11:30:24;;;;;;;13.00;7.72;;;;;;;21.41;45.42;96537.91;6194457;23;20150;-80
2023/10/01 11:35:41;;;;;;;13.65;8.50;;;;;;;21.63;44.78;96536.84;6225260;23;20182;-80
2023/10/01 11:38:14;;;;;;;12.90;7.93;;;;;;;21.83;45.14;96530.91;6205699;23;20137;-80
2023/10/01 11:43:34;;;;;;;14.73;7.97;;;;;;;22.01;43.48;96523.28;6194941;23;20170;-80
2023/10/01 11:46:19;;;;;;;13.43;7.85;;;;;;;22.24;43.94;96520.34;6223509;23;20171;-80
2023/10/01 11:49:04;;;;;;;15.07;8.52;;;;;;;22.20;43.33;96516.47;6190922;23;20233;-80
2023/10/01 11:51:42;;;;;;;14.50;8.15;;;;;;;22.18;43.45;96508.75;6165443;23;20650;-80
2023/10/01 11:54:11;;;;;;;13.75;7.70;;;;;;;22.16;43.05;96500.16;6188666;23;20456;-80
2023/10/01 11:57:05;;;;;;;13.02;7.50;;;;;;;22.26;43.13;96500.66;6188678;23;20189;-80
2023/10/01 11:59:31;;;;;;;14.57;8.02;;;;;;;22.20;43.20;96504.06;6183269;23;20159;-80
2023/10/01 12:02:15;;;;;;;14.77;8.32;;;;;;;22.29;42.83;96497.59;6188042;23;20273;-79
2023/10/01 12:04:44;;;;;;;13.82;8.35;;;;;;;22.19;42.71;96489.22;6187557;23;20241;-80
2023/10/01 12:07:16;;;;;;;13.05;7.85;;;;;;;22.35;42.43;96493.31;6164577;23;20162;-80
2023/10/01 12:09:52;;;;;;;13.43;8.02;;;;;;;22.43;42.86;96497.63;6187880;23;20150;-79
2023/10/01 12:12:39;;;;;;;11.88;7.57;;;;;;;22.39;42.07;96488.47;6212774;23;20174;-81
2023/10/01 12:17:53;;;;;;;12.48;7.50;;;;;;;22.39;42.42;96488.47;6189897;23;20150;-80